»·PEaware :: UAL701 KSFO-KLAS

UAL701 :: KSFO-KLAS

FLIGHT INFORMATION

Flight Status: Arrived
Operator:
United Airlines
More flights by this operator :: More flights under this callsign
Pilot: Jack S. (366)
Aircraft: BOEING 727-100
(B721)
More flights by this aircraft type
Origin: KSFO San Francisco Intl
United States
Destination: KLAS McCarran Intl
United States
More flights between these airports :: More routes between these airports
Route: +SFO4 LIN J84 BABIT J92 BTY FUZZY8
File this flight plan on PilotEdge
Remarks: united 701
Altitude:
(Current/Filed)
350ft
Speed:
(Current/Filed)
480kts
Departed: 27-Jul-18 09:20 AM
Arrived: 27-Jul-18 11:28 AM
Distance/Time
Traveled:
359nm/2:08
Distance/Time
To Go:
Arrived

Flight Plot

Page will automatically refresh every two minutes.

Flight plan parsing failed; only flown route is shown


Map Options




Map Legend


Flown Route
Filed Route
Departure Airport
Arrival Airport
Navaid (VOR, NDB)
Fix

Horizontal Profiles

Position Reports

Time Latitude Longitude Heading Altitude Ground
Speed
27-Jul-18 08:49 37.618810 -122.385207 155 24ft 0kts
27-Jul-18 08:50 37.618810 -122.385207 155 24ft 0kts
27-Jul-18 08:51 37.618810 -122.385207 155 24ft 0kts
27-Jul-18 08:52 37.618810 -122.385207 155 24ft 0kts
27-Jul-18 08:53 37.618810 -122.385207 155 24ft 0kts
27-Jul-18 08:54 37.618810 -122.385207 155 24ft 0kts
27-Jul-18 08:55 37.618810 -122.385207 155 24ft 0kts
27-Jul-18 08:56 37.618810 -122.385207 155 24ft 0kts
27-Jul-18 08:57 37.618810 -122.385207 155 24ft 0kts
27-Jul-18 08:58 37.618810 -122.385207 155 24ft 0kts
27-Jul-18 08:59 37.618810 -122.385207 155 24ft 0kts
27-Jul-18 09:00 37.618810 -122.385207 155 24ft 0kts
27-Jul-18 09:01 37.618810 -122.385207 155 24ft 0kts
27-Jul-18 09:02 37.618810 -122.385207 155 24ft 0kts
27-Jul-18 09:03 37.618810 -122.385207 155 24ft 0kts
27-Jul-18 09:04 37.618810 -122.385207 155 24ft 0kts
27-Jul-18 09:05 37.618810 -122.385207 155 24ft 0kts
27-Jul-18 09:06 37.618810 -122.385207 155 24ft 0kts
27-Jul-18 09:07 37.618810 -122.385207 155 24ft 0kts
27-Jul-18 09:08 37.618810 -122.385207 155 24ft 0kts
27-Jul-18 09:09 37.619100 -122.385375 155 24ft 2kts
27-Jul-18 09:10 37.619448 -122.385794 101 24ft 2kts
27-Jul-18 09:11 37.619409 -122.386157 68 24ft 0kts
27-Jul-18 09:12 37.619409 -122.386157 68 24ft 0kts
27-Jul-18 09:13 37.619409 -122.386157 68 24ft 0kts
27-Jul-18 09:14 37.619415 -122.386136 68 24ft 1kts
27-Jul-18 09:15 37.620393 -122.383764 118 24ft 17kts
27-Jul-18 09:16 37.616719 -122.379678 197 24ft 21kts
27-Jul-18 09:17 37.611456 -122.383111 207 24ft 18kts
27-Jul-18 09:18 37.608837 -122.384462 143 24ft 8kts
27-Jul-18 09:20 37.608297 -122.383462 115 24ft 10kts
27-Jul-18 09:21 37.629080 -122.367968 29 588ft 184kts
27-Jul-18 09:22 37.663536 -122.322338 49 3654ft 221kts
27-Jul-18 09:23 37.701628 -122.265526 48 6010ft 278kts
27-Jul-18 09:24 37.737816 -122.212080 48 8348ft 268kts
27-Jul-18 09:25 37.743447 -122.153339 112 8306ft 240kts
27-Jul-18 09:26 37.723679 -122.091304 113 6982ft 250kts
27-Jul-18 09:27 37.703168 -122.026754 113 5983ft 236kts
27-Jul-18 09:28 37.659592 -121.995173 173 4988ft 212kts
27-Jul-18 09:29 37.606484 -121.985352 188 5010ft 219kts
27-Jul-18 09:30 37.548754 -122.012052 203 4946ft 216kts
27-Jul-18 09:31 37.509504 -122.049925 260 5074ft 195kts
27-Jul-18 09:32 37.509272 -122.113267 295 4988ft 178kts
27-Jul-18 09:33 37.529174 -122.166065 295 4291ft 176kts
27-Jul-18 09:34 37.552379 -122.217425 297 2071ft 175kts
27-Jul-18 09:35 37.574601 -122.270515 297 1159ft 173kts
27-Jul-18 09:36 37.595094 -122.319031 298 724ft 144kts
27-Jul-18 09:37 37.610276 -122.355080 297 191ft 123kts
27-Jul-18 09:38 37.618293 -122.374088 295 24ft 14kts
27-Jul-18 09:39 37.618913 -122.379250 268 24ft 13kts
27-Jul-18 09:40 37.619202 -122.382314 212 24ft 9kts
27-Jul-18 09:53 37.618810 -122.385207 155 24ft 0kts
27-Jul-18 09:54 37.618810 -122.385207 155 24ft 0kts
27-Jul-18 09:55 37.618810 -122.385207 155 24ft 0kts
27-Jul-18 09:56 37.618810 -122.385207 155 24ft 0kts
27-Jul-18 09:57 37.618810 -122.385207 155 24ft 0kts
27-Jul-18 09:58 37.618810 -122.385207 155 24ft 0kts
27-Jul-18 09:59 37.618810 -122.385207 155 24ft 0kts
27-Jul-18 10:00 37.618810 -122.385207 155 24ft 0kts
27-Jul-18 10:01 37.618810 -122.385207 155 24ft 0kts
27-Jul-18 10:02 37.618810 -122.385207 155 24ft 0kts
27-Jul-18 10:03 37.618810 -122.385207 155 24ft 0kts
27-Jul-18 10:04 37.619088 -122.385370 156 24ft 1kts
27-Jul-18 10:05 37.619435 -122.385734 108 24ft 2kts
27-Jul-18 10:06 37.619415 -122.386143 68 24ft 0kts
27-Jul-18 10:07 37.619415 -122.386142 68 24ft 0kts
27-Jul-18 10:08 37.619897 -122.385600 26 24ft 8kts
27-Jul-18 10:09 37.618634 -122.379985 148 24ft 19kts
27-Jul-18 10:10 37.615931 -122.380113 207 24ft 19kts
27-Jul-18 10:11 37.611521 -122.383046 209 24ft 17kts
27-Jul-18 10:12 37.608531 -122.383900 125 24ft 0kts
27-Jul-18 10:13 37.608414 -122.383678 122 24ft 11kts
27-Jul-18 10:14 37.622013 -122.373440 28 55ft 171kts
27-Jul-18 10:15 37.659582 -122.330015 45 2288ft 257kts
27-Jul-18 10:16 37.703192 -122.271639 45 6181ft 277kts
27-Jul-18 10:17 37.745628 -122.214735 57 9250ft 289kts
27-Jul-18 10:18 37.767578 -122.123902 73 11325ft 341kts
27-Jul-18 10:19 37.793631 -122.022707 71 14218ft 356kts
27-Jul-18 10:20 37.825203 -121.907876 71 16846ft 376kts
27-Jul-18 10:21 37.859404 -121.785249 71 19223ft 394kts
27-Jul-18 10:22 37.894333 -121.659391 71 21300ft 410kts
27-Jul-18 10:23 37.929156 -121.533934 71 23061ft 424kts
27-Jul-18 10:24 37.958338 -121.428255 71 24358ft 436kts
27-Jul-18 10:25 37.989472 -121.314690 72 25619ft 445kts
27-Jul-18 10:26 38.019004 -121.205210 72 26691ft 454kts
27-Jul-18 10:27 38.054505 -121.074912 73 28002ft 460kts
27-Jul-18 10:28 38.085057 -120.951770 81 29059ft 462kts
27-Jul-18 10:29 38.106561 -120.827490 79 29881ft 471kts
27-Jul-18 10:30 38.127007 -120.716524 79 30569ft 478kts
27-Jul-18 10:31 38.149497 -120.591613 79 31717ft 474kts
27-Jul-18 10:32 38.171338 -120.468448 79 32591ft 475kts
27-Jul-18 10:33 38.193273 -120.343369 79 33426ft 476kts
27-Jul-18 10:34 38.214460 -120.220270 79 34147ft 476kts
27-Jul-18 10:35 38.237428 -120.088214 79 35001ft 474kts
27-Jul-18 10:36 38.262530 -119.943209 79 35351ft 485kts
27-Jul-18 10:37 38.287919 -119.782711 81 35355ft 505kts
27-Jul-18 10:38 38.314412 -119.613316 79 35313ft 525kts
27-Jul-18 10:39 38.343094 -119.439626 79 35286ft 542kts
27-Jul-18 10:40 38.368789 -119.280607 80 35294ft 552kts
27-Jul-18 10:41 38.392918 -119.130732 80 35349ft 558kts
27-Jul-18 10:42 38.422047 -118.950456 80 35397ft 559kts
27-Jul-18 10:43 38.452247 -118.761769 79 35342ft 554kts
27-Jul-18 10:44 38.480768 -118.582031 79 35297ft 550kts
27-Jul-18 10:45 38.503725 -118.395172 97 35252ft 540kts
27-Jul-18 10:46 38.446245 -118.252478 146 35302ft 499kts
27-Jul-18 10:47 38.358305 -118.162575 145 35318ft 499kts
27-Jul-18 10:48 38.264811 -118.059820 144 35205ft 502kts
27-Jul-18 10:49 38.169517 -117.953940 144 35218ft 501kts
27-Jul-18 10:50 38.067400 -117.840721 144 35258ft 500kts
27-Jul-18 10:51 37.965778 -117.735828 152 35241ft 492kts
27-Jul-18 10:52 37.888693 -117.671464 152 35237ft 492kts
27-Jul-18 10:53 37.809123 -117.604952 151 35264ft 493kts
27-Jul-18 10:54 37.701275 -117.513634 151 35271ft 494kts
27-Jul-18 10:55 37.590692 -117.420027 151 35272ft 495kts
27-Jul-18 10:56 37.491074 -117.335841 151 35263ft 496kts
27-Jul-18 10:57 37.389118 -117.248043 151 35261ft 496kts
27-Jul-18 10:58 37.277460 -117.152117 151 35262ft 495kts
27-Jul-18 10:59 37.167977 -117.058511 151 35262ft 495kts
27-Jul-18 11:00 37.058097 -116.964963 150 35264ft 495kts
27-Jul-18 11:01 36.954708 -116.877213 150 34182ft 473kts
27-Jul-18 11:02 36.881065 -116.815149 150 32972ft 463kts
27-Jul-18 11:03 36.796713 -116.745055 149 31527ft 451kts
27-Jul-18 11:04 36.730726 -116.652475 132 29866ft 448kts
27-Jul-18 11:05 36.663026 -116.551842 133 28193ft 435kts
27-Jul-18 11:06 36.588234 -116.444198 134 26365ft 422kts
27-Jul-18 11:07 36.519190 -116.345742 134 24665ft 410kts
27-Jul-18 11:08 36.452842 -116.251630 134 23009ft 399kts
27-Jul-18 11:09 36.382562 -116.152329 133 21232ft 388kts
27-Jul-18 11:10 36.314222 -116.055975 133 19489ft 377kts
27-Jul-18 11:11 36.249698 -115.965267 133 17832ft 368kts
27-Jul-18 11:12 36.181964 -115.879226 140 16124ft 359kts
27-Jul-18 11:13 36.115347 -115.808600 140 15776ft 316kts
27-Jul-18 11:14 36.051201 -115.740942 140 14368ft 312kts
27-Jul-18 11:15 35.992069 -115.679343 140 12837ft 298kts
27-Jul-18 11:16 35.931536 -115.617225 140 10971ft 298kts
27-Jul-18 11:17 35.896315 -115.581043 140 10024ft 295kts
27-Jul-18 11:18 35.857006 -115.540475 140 9050ft 287kts
27-Jul-18 11:19 35.823040 -115.475069 78 8204ft 265kts
27-Jul-18 11:20 35.870002 -115.410254 41 7016ft 254kts
27-Jul-18 11:21 35.919499 -115.369844 356 7049ft 226kts
27-Jul-18 11:22 35.980310 -115.379449 351 6909ft 227kts
27-Jul-18 11:23 36.034294 -115.378210 13 6214ft 209kts
27-Jul-18 11:24 36.057412 -115.342179 74 5192ft 192kts
27-Jul-18 11:25 36.068518 -115.299953 76 4219ft 167kts
27-Jul-18 11:26 36.073099 -115.251895 90 3693ft 154kts
27-Jul-18 11:27 36.073497 -115.206314 92 3049ft 139kts
27-Jul-18 11:28 36.073598 -115.164637 91 2266ft 132kts
27-Jul-18 11:29 36.074004 -115.136151 67 2123ft 24kts
27-Jul-18 11:30 36.077169 -115.133840 3 2123ft 3kts
27-Jul-18 11:31 36.077381 -115.133826 3 2123ft 0kts
27-Jul-18 11:32 36.079061 -115.134205 278 2123ft 14kts
27-Jul-18 11:33 36.080039 -115.137325 308 2123ft 16kts
27-Jul-18 11:34 36.080820 -115.138425 313 2123ft 0kts
27-Jul-18 11:35 36.080820 -115.138425 313 2123ft 0kts
27-Jul-18 11:36 36.080820 -115.138425 313 2123ft 0kts
27-Jul-18 11:37 36.080820 -115.138425 313 2123ft 0kts
27-Jul-18 11:38 36.080820 -115.138425 313 2123ft 0kts

Navigation Log

Ident Type
Flight plan parsing failed, navigation log unavailable